Time;durP1;ratioP1;P1;durP2;ratioP2;P2;SDS_P1;SDS_P2;PMS_P1;PMS_P2;Temp;Humidity;BMP_temperature;BMP_pressure;BME280_temperature;BME280_humidity;BME280_pressure;Samples;Min_cycle;Max_cycle;Signal;HPM_P1;HPM_P2
2022/09/30 00:00:32;;;;;;;0.90;0.90;;;12.40;99.90;;;;;;5025831;28;20227;-65
2022/09/30 00:02:59;;;;;;;1.10;1.10;;;12.40;99.90;;;;;;5026476;28;20855;-66
2022/09/30 00:05:26;;;;;;;1.67;1.00;;;12.40;99.90;;;;;;5024415;28;20291;-67
2022/09/30 00:07:52;;;;;;;1.00;1.00;;;12.30;99.90;;;;;;5026527;28;20205;-66
2022/09/30 00:10:21;;;;;;;1.07;1.07;;;12.30;99.90;;;;;;5025575;28;20203;-66
2022/09/30 00:12:47;;;;;;;1.20;1.20;;;12.20;99.90;;;;;;5028911;28;20315;-67
2022/09/30 00:15:14;;;;;;;1.20;1.20;;;12.10;99.90;;;;;;5025880;28;20201;-67
2022/09/30 00:17:41;;;;;;;1.10;1.10;;;12.20;99.90;;;;;;5027544;28;20573;-67
2022/09/30 00:20:09;;;;;;;1.10;1.10;;;12.20;99.90;;;;;;5024888;28;20229;-66
2022/09/30 00:22:36;;;;;;;1.00;1.00;;;12.20;99.90;;;;;;5026601;28;20228;-66
2022/09/30 00:25:03;;;;;;;1.10;1.10;;;12.20;99.90;;;;;;5018159;28;20219;-66
2022/09/30 00:27:31;;;;;;;1.20;1.20;;;12.20;99.90;;;;;;5029808;28;20202;-68
2022/09/30 00:29:58;;;;;;;1.37;1.27;;;12.30;99.90;;;;;;5023482;28;20652;-67
2022/09/30 00:32:25;;;;;;;1.17;1.17;;;12.50;99.90;;;;;;5025622;28;20231;-66
2022/09/30 00:34:52;;;;;;;1.20;1.20;;;12.30;99.90;;;;;;5022786;28;20201;-69
2022/09/30 00:37:19;;;;;;;1.03;1.03;;;12.30;99.90;;;;;;5032643;28;20292;-66
2022/09/30 00:39:45;;;;;;;1.10;1.10;;;12.40;99.90;;;;;;5030241;28;20375;-66
2022/09/30 00:42:14;;;;;;;1.00;1.00;;;12.30;99.90;;;;;;5029463;28;20226;-68
2022/09/30 00:44:50;;;;;;;1.10;1.10;;;12.30;99.90;;;;;;5018514;28;20584;-66
2022/09/30 00:47:35;;;;;;;1.10;1.10;;;12.40;99.90;;;;;;5021281;28;20660;-67
2022/09/30 00:50:05;;;;;;;1.40;1.20;;;12.30;99.90;;;;;;5014699;28;20592;-66
2022/09/30 00:52:33;;;;;;;1.10;1.10;;;12.30;99.90;;;;;;5017659;28;20221;-66
2022/09/30 00:55:07;;;;;;;1.30;1.30;;;12.30;99.90;;;;;;5014146;28;20569;-66
2022/09/30 00:57:34;;;;;;;1.17;1.17;;;12.30;99.90;;;;;;5021315;28;20630;-66
2022/09/30 01:00:02;;;;;;;1.13;1.13;;;12.30;99.90;;;;;;5015018;28;20685;-66
2022/09/30 01:02:29;;;;;;;1.17;1.17;;;12.30;99.90;;;;;;5018207;28;20312;-67
2022/09/30 01:04:57;;;;;;;1.20;1.10;;;12.30;99.90;;;;;;5016000;28;20207;-66
2022/09/30 01:07:24;;;;;;;1.00;1.00;;;12.30;99.90;;;;;;5012930;28;20207;-67
2022/09/30 01:09:52;;;;;;;1.10;1.10;;;12.30;99.90;;;;;;5014597;28;20202;-66
2022/09/30 01:12:23;;;;;;;1.10;1.10;;;12.20;99.90;;;;;;5013525;28;20227;-67
2022/09/30 01:14:52;;;;;;;1.00;1.00;;;12.20;99.90;;;;;;5017349;28;20577;-66
2022/09/30 01:17:30;;;;;;;0.80;0.80;;;12.20;99.90;;;;;;5014429;28;20288;-66
2022/09/30 01:20:30;;;;;;;1.00;1.00;;;12.10;99.90;;;;;;5017461;28;20223;-67
2022/09/30 01:23:08;;;;;;;0.87;0.87;;;12.10;99.90;;;;;;5017954;28;20707;-66
2022/09/30 01:26:03;;;;;;;1.10;1.00;;;12.00;99.90;;;;;;5020060;28;20201;-66
2022/09/30 01:29:01;;;;;;;0.90;0.90;;;12.00;99.90;;;;;;5013666;28;20292;-66
2022/09/30 01:31:41;;;;;;;1.00;1.00;;;12.00;99.90;;;;;;5023290;28;20224;-67
2022/09/30 01:34:16;;;;;;;0.83;0.83;;;12.10;99.90;;;;;;5023928;28;20208;-66
2022/09/30 01:36:58;;;;;;;1.40;0.97;;;12.00;99.90;;;;;;5021225;28;20205;-66
2022/09/30 01:39:36;;;;;;;0.60;0.60;;;12.00;99.90;;;;;;5027298;28;20210;-66
2022/09/30 01:42:12;;;;;;;0.90;0.90;;;12.00;99.90;;;;;;5018352;28;20570;-67
2022/09/30 01:44:50;;;;;;;0.90;0.90;;;12.00;99.90;;;;;;5026062;28;20201;-66
2022/09/30 01:47:25;;;;;;;0.90;0.90;;;12.00;99.90;;;;;;5024067;28;20208;-66
2022/09/30 01:49:59;;;;;;;0.93;0.93;;;12.10;99.90;;;;;;5025598;28;20201;-66
2022/09/30 01:52:38;;;;;;;1.00;1.00;;;12.10;99.90;;;;;;5019602;28;20220;-67
2022/09/30 01:55:11;;;;;;;0.80;0.80;;;12.20;99.90;;;;;;5022800;28;20236;-66
2022/09/30 01:57:44;;;;;;;1.30;0.93;;;12.20;99.90;;;;;;5024317;28;20690;-67
2022/09/30 02:00:14;;;;;;;0.83;0.83;;;12.20;99.90;;;;;;5022623;28;20212;-66
2022/09/30 02:02:48;;;;;;;0.80;0.80;;;12.20;99.90;;;;;;5024498;28;20225;-66
2022/09/30 02:05:19;;;;;;;0.93;0.93;;;12.20;99.90;;;;;;5024355;28;20199;-67
2022/09/30 02:07:50;;;;;;;1.00;1.00;;;12.30;99.90;;;;;;5024871;28;20219;-69
2022/09/30 02:10:20;;;;;;;1.00;1.00;;;12.30;99.90;;;;;;5022639;28;20566;-67
2022/09/30 02:12:54;;;;;;;1.00;1.00;;;12.30;99.90;;;;;;5025523;28;20227;-66
2022/09/30 02:15:24;;;;;;;1.00;1.00;;;12.30;99.90;;;;;;5021966;28;20213;-66
2022/09/30 02:17:57;;;;;;;0.90;0.90;;;12.30;99.90;;;;;;5026770;28;20219;-68
2022/09/30 02:20:26;;;;;;;1.00;1.00;;;12.30;99.90;;;;;;5024837;28;20220;-68
2022/09/30 02:23:00;;;;;;;0.93;0.93;;;12.40;99.90;;;;;;5025308;28;20234;-67
2022/09/30 02:25:32;;;;;;;1.00;1.00;;;12.30;99.90;;;;;;5015382;28;20307;-69
2022/09/30 02:28:06;;;;;;;1.00;1.00;;;12.30;99.90;;;;;;5019792;28;20212;-67
2022/09/30 02:30:35;;;;;;;0.90;0.90;;;12.30;99.90;;;;;;5023877;28;20279;-68
2022/09/30 02:33:09;;;;;;;0.80;0.80;;;12.20;99.90;;;;;;5015720;28;20633;-67
2022/09/30 02:35:39;;;;;;;0.80;0.80;;;12.30;99.90;;;;;;5024107;28;20334;-68
2022/09/30 02:38:11;;;;;;;1.00;0.90;;;12.30;99.90;;;;;;5022782;28;20209;-67
2022/09/30 02:40:42;;;;;;;0.90;0.90;;;12.30;99.90;;;;;;5023464;28;20217;-68
2022/09/30 02:43:10;;;;;;;0.80;0.80;;;12.30;99.90;;;;;;5023272;28;20228;-70
2022/09/30 02:45:44;;;;;;;0.90;0.90;;;12.40;99.90;;;;;;5023988;28;20208;-68
2022/09/30 02:48:25;;;;;;;1.00;1.00;;;12.40;99.90;;;;;;5026548;28;20200;-69
2022/09/30 02:50:54;;;;;;;0.90;0.90;;;12.40;99.90;;;;;;5024850;28;20203;-67
2022/09/30 02:53:27;;;;;;;1.00;0.90;;;12.30;99.90;;;;;;5026145;28;20758;-68
2022/09/30 02:56:17;;;;;;;1.00;1.00;;;12.30;99.90;;;;;;5026724;28;20577;-68
2022/09/30 02:58:46;;;;;;;0.80;0.80;;;12.30;99.90;;;;;;5017851;28;20607;-66
2022/09/30 03:01:15;;;;;;;0.87;0.87;;;12.20;99.90;;;;;;5021656;28;20229;-68
2022/09/30 03:03:47;;;;;;;0.90;0.90;;;12.30;99.90;;;;;;5023918;28;20573;-69
2022/09/30 03:06:15;;;;;;;0.90;0.90;;;12.30;99.90;;;;;;5021937;28;20205;-67
2022/09/30 03:08:42;;;;;;;0.60;0.60;;;12.30;99.90;;;;;;5024812;28;20543;-70
2022/09/30 03:11:14;;;;;;;0.80;0.80;;;12.30;99.90;;;;;;5021140;28;20221;-67
2022/09/30 03:14:14;;;;;;;0.90;0.90;;;12.30;99.90;;;;;;5025835;28;20294;-68
2022/09/30 03:16:56;;;;;;;0.90;0.90;;;12.30;99.90;;;;;;4973559;28;20207;-67
2022/09/30 03:19:39;;;;;;;0.93;0.93;;;12.20;99.90;;;;;;5021537;28;20200;-67
2022/09/30 03:22:25;;;;;;;1.03;0.90;;;12.20;99.90;;;;;;5022433;28;20235;-69
2022/09/30 03:25:04;;;;;;;1.00;1.00;;;12.10;99.90;;;;;;5021264;28;20258;-67
2022/09/30 03:27:39;;;;;;;1.10;1.10;;;12.00;99.90;;;;;;5016365;28;20588;-66
2022/09/30 03:30:08;;;;;;;1.20;1.20;;;12.00;99.90;;;;;;5021074;28;20599;-69
2022/09/30 03:32:48;;;;;;;1.23;1.23;;;12.00;99.90;;;;;;5028592;28;20217;-69
2022/09/30 03:35:24;;;;;;;1.20;1.20;;;11.90;99.90;;;;;;5025731;28;20208;-67
2022/09/30 03:38:00;;;;;;;1.30;1.30;;;11.90;99.90;;;;;;5029051;28;20203;-68
2022/09/30 03:40:33;;;;;;;1.30;1.20;;;11.90;99.90;;;;;;5021124;28;20220;-67
2022/09/30 03:43:06;;;;;;;1.43;1.43;;;11.80;99.90;;;;;;5026935;28;20221;-68
2022/09/30 03:45:37;;;;;;;1.70;1.60;;;11.70;99.90;;;;;;5015669;28;20207;-68
2022/09/30 03:48:07;;;;;;;1.80;1.70;;;11.60;99.90;;;;;;5025055;28;20208;-67
2022/09/30 03:50:37;;;;;;;1.57;1.47;;;11.60;99.90;;;;;;5027575;28;20288;-67
2022/09/30 03:53:08;;;;;;;1.40;1.30;;;11.60;99.90;;;;;;5025738;28;20229;-67
2022/09/30 03:55:47;;;;;;;1.57;1.47;;;11.60;99.90;;;;;;5025050;28;20251;-68
2022/09/30 03:58:15;;;;;;;1.30;1.30;;;11.70;99.90;;;;;;5028789;28;20200;-68
2022/09/30 04:00:47;;;;;;;1.40;1.30;;;11.70;99.90;;;;;;5027028;28;20228;-69
2022/09/30 04:03:14;;;;;;;1.03;1.03;;;11.70;99.90;;;;;;5029352;28;20227;-68
2022/09/30 04:05:43;;;;;;;2.00;1.40;;;11.70;99.90;;;;;;5027724;28;20546;-69
2022/09/30 04:08:10;;;;;;;1.17;1.17;;;11.80;99.90;;;;;;5026068;28;20295;-69
2022/09/30 04:10:37;;;;;;;2.10;1.40;;;11.80;99.90;;;;;;5026995;28;20610;-68
2022/09/30 04:13:03;;;;;;;1.40;1.40;;;11.90;99.90;;;;;;5026979;28;20230;-68
2022/09/30 04:15:30;;;;;;;1.50;1.40;;;11.90;99.90;;;;;;5027811;28;20197;-68
2022/09/30 04:17:58;;;;;;;2.00;1.90;;;12.00;99.90;;;;;;5027461;28;20263;-68
2022/09/30 04:20:25;;;;;;;2.10;2.00;;;11.90;99.90;;;;;;5023564;28;20205;-68
2022/09/30 04:22:53;;;;;;;2.30;2.20;;;11.90;99.90;;;;;;5022216;28;20237;-69
2022/09/30 04:25:20;;;;;;;1.93;1.83;;;12.00;99.90;;;;;;5032897;28;20209;-68
2022/09/30 04:27:46;;;;;;;1.40;1.40;;;11.90;99.90;;;;;;5035018;28;20268;-67
2022/09/30 04:30:13;;;;;;;1.40;1.30;;;11.90;99.90;;;;;;5025596;28;20312;-68
2022/09/30 04:32:44;;;;;;;0.87;0.87;;;11.80;99.90;;;;;;5035853;28;20225;-68
2022/09/30 04:35:11;;;;;;;1.00;1.00;;;11.80;99.90;;;;;;5034726;28;20201;-69
2022/09/30 04:37:42;;;;;;;1.00;1.00;;;11.80;99.90;;;;;;5035440;28;20202;-68
2022/09/30 04:40:11;;;;;;;1.33;1.30;;;11.70;99.90;;;;;;5022834;28;20205;-69
2022/09/30 04:42:38;;;;;;;0.90;0.90;;;11.70;99.90;;;;;;5024965;28;20688;-69
2022/09/30 04:45:06;;;;;;;0.93;0.93;;;11.60;99.90;;;;;;5022651;28;20251;-69
2022/09/30 04:47:33;;;;;;;1.13;1.13;;;11.50;99.90;;;;;;5022121;28;20197;-67
2022/09/30 04:49:59;;;;;;;0.83;0.83;;;11.40;99.90;;;;;;5022160;28;20201;-68
2022/09/30 04:52:26;;;;;;;0.97;0.97;;;11.40;99.90;;;;;;5024532;28;20761;-67
2022/09/30 04:54:53;;;;;;;2.00;1.10;;;11.30;99.90;;;;;;5019368;28;20201;-69
2022/09/30 04:57:22;;;;;;;1.00;0.90;;;11.20;99.90;;;;;;5024614;28;20625;-67
2022/09/30 04:59:49;;;;;;;0.67;0.67;;;11.10;99.90;;;;;;5025002;28;20268;-67
2022/09/30 05:02:16;;;;;;;1.10;1.10;;;11.10;99.90;;;;;;5025003;28;20745;-69
2022/09/30 05:04:43;;;;;;;0.93;0.83;;;10.90;99.90;;;;;;5021093;28;20205;-68
2022/09/30 05:07:10;;;;;;;1.10;1.10;;;11.00;99.90;;;;;;5024908;28;20213;-68
2022/09/30 05:09:37;;;;;;;1.20;1.10;;;10.90;99.90;;;;;;5025115;28;20615;-68
2022/09/30 05:12:04;;;;;;;1.30;0.93;;;10.90;99.90;;;;;;5026965;28;20272;-67
2022/09/30 05:14:33;;;;;;;0.90;0.90;;;10.80;99.90;;;;;;5048630;28;20235;-68
2022/09/30 05:17:00;;;;;;;1.00;1.00;;;10.80;99.90;;;;;;5035378;28;20674;-68
2022/09/30 05:19:27;;;;;;;1.00;1.00;;;10.80;99.90;;;;;;5027655;28;20224;-68
2022/09/30 05:21:54;;;;;;;0.80;0.80;;;10.80;99.90;;;;;;5023158;28;20235;-65
2022/09/30 05:24:21;;;;;;;1.27;1.10;;;10.80;99.90;;;;;;5025702;28;20214;-67
2022/09/30 05:26:48;;;;;;;1.00;1.00;;;10.80;99.90;;;;;;5025100;28;20207;-68
2022/09/30 05:29:15;;;;;;;1.00;1.00;;;10.80;99.90;;;;;;5023626;28;20690;-68
2022/09/30 05:31:43;;;;;;;1.10;1.10;;;10.70;99.90;;;;;;5029104;28;20281;-69
2022/09/30 05:34:10;;;;;;;1.03;1.03;;;10.70;99.90;;;;;;5035299;28;20205;-68
2022/09/30 05:36:37;;;;;;;1.33;0.87;;;10.70;99.90;;;;;;5025923;28;20198;-66
2022/09/30 05:39:03;;;;;;;1.00;1.00;;;10.60;99.90;;;;;;5034938;28;20236;-64
2022/09/30 05:41:31;;;;;;;1.00;1.00;;;10.60;99.90;;;;;;5032976;28;20237;-69
2022/09/30 05:44:00;;;;;;;1.10;1.00;;;10.60;99.90;;;;;;5036780;28;20572;-68
2022/09/30 05:46:27;;;;;;;1.10;1.10;;;10.60;99.90;;;;;;5036120;28;20349;-66
2022/09/30 05:48:55;;;;;;;1.00;1.00;;;10.60;99.90;;;;;;5034177;28;20289;-66
2022/09/30 05:51:22;;;;;;;0.90;0.90;;;10.80;99.90;;;;;;5020702;28;20545;-67
2022/09/30 05:53:50;;;;;;;0.90;0.90;;;10.70;99.90;;;;;;5015396;28;20201;-67
2022/09/30 05:56:17;;;;;;;0.80;0.80;;;10.80;99.90;;;;;;5028075;28;20307;-67
2022/09/30 05:58:46;;;;;;;1.00;1.00;;;10.80;99.90;;;;;;5015352;28;20197;-69
2022/09/30 06:01:15;;;;;;;0.90;0.90;;;10.90;99.90;;;;;;5020708;28;20300;-67
2022/09/30 06:03:42;;;;;;;1.50;1.17;;;11.00;99.90;;;;;;5022941;28;20201;-68
2022/09/30 06:06:11;;;;;;;1.07;1.07;;;11.10;99.90;;;;;;5022357;28;20854;-69
2022/09/30 06:08:39;;;;;;;1.20;1.17;;;11.20;99.90;;;;;;5015848;28;20585;-67
2022/09/30 06:11:11;;;;;;;1.27;1.20;;;11.30;99.90;;;;;;5023641;28;20219;-68
2022/09/30 06:13:38;;;;;;;1.90;1.80;;;11.30;99.90;;;;;;5013721;28;20224;-67
2022/09/30 06:16:07;;;;;;;1.67;1.60;;;11.30;99.90;;;;;;5018978;28;20205;-68
2022/09/30 06:18:33;;;;;;;1.80;1.70;;;11.40;99.90;;;;;;5019691;28;20198;-67
2022/09/30 06:21:02;;;;;;;1.47;1.37;;;11.40;99.90;;;;;;5014366;28;20248;-68
2022/09/30 06:23:33;;;;;;;1.27;1.27;;;11.40;99.90;;;;;;5015389;28;20284;-68
2022/09/30 06:26:01;;;;;;;1.20;1.20;;;11.40;99.90;;;;;;5012223;28;20206;-68
2022/09/30 06:28:28;;;;;;;1.10;1.10;;;11.40;99.90;;;;;;5023548;28;20570;-69
2022/09/30 06:30:55;;;;;;;1.30;1.10;;;11.40;99.90;;;;;;5018932;28;20236;-68
2022/09/30 06:33:22;;;;;;;1.00;1.00;;;11.40;99.90;;;;;;5025052;28;20299;-68
2022/09/30 06:35:51;;;;;;;0.90;0.90;;;11.40;99.90;;;;;;5021038;28;20207;-69
2022/09/30 06:38:18;;;;;;;1.00;1.00;;;11.40;99.90;;;;;;5024736;28;20296;-70
2022/09/30 06:40:48;;;;;;;0.80;0.80;;;11.40;99.90;;;;;;5006890;28;20300;-69
2022/09/30 06:43:15;;;;;;;1.73;1.30;;;11.40;99.90;;;;;;5022589;28;20205;-70
2022/09/30 06:45:42;;;;;;;1.73;1.63;;;11.50;99.90;;;;;;5020597;28;20620;-69
2022/09/30 06:48:10;;;;;;;1.10;1.10;;;11.50;99.90;;;;;;5022873;28;20208;-70
2022/09/30 06:50:37;;;;;;;1.17;1.17;;;11.50;99.90;;;;;;5018421;28;20667;-68
2022/09/30 06:53:07;;;;;;;1.10;1.10;;;11.40;99.90;;;;;;5023500;28;20248;-69
2022/09/30 06:55:37;;;;;;;1.13;1.13;;;11.40;99.90;;;;;;5025548;28;20196;-67
2022/09/30 06:58:07;;;;;;;1.23;1.23;;;11.40;99.90;;;;;;5019956;28;20232;-68
2022/09/30 07:00:35;;;;;;;1.10;1.10;;;11.40;99.90;;;;;;5025077;28;20285;-67
2022/09/30 07:03:01;;;;;;;1.33;1.33;;;11.40;99.90;;;;;;5025287;28;20579;-68
2022/09/30 07:05:28;;;;;;;1.60;1.60;;;11.50;99.90;;;;;;5018956;28;20200;-70
2022/09/30 07:07:56;;;;;;;1.00;1.00;;;11.50;99.90;;;;;;5024672;28;20211;-69
2022/09/30 07:10:22;;;;;;;1.30;1.30;;;11.60;99.90;;;;;;5023334;28;20271;-70
2022/09/30 07:12:50;;;;;;;2.30;2.10;;;11.60;99.90;;;;;;5027039;28;20307;-69
2022/09/30 07:15:21;;;;;;;1.93;1.83;;;11.60;99.90;;;;;;5024106;28;20216;-69
2022/09/30 07:17:51;;;;;;;1.47;1.33;;;11.70;99.90;;;;;;5027760;28;20207;-70
2022/09/30 07:20:18;;;;;;;1.13;1.13;;;11.70;99.90;;;;;;5020166;28;20720;-68
2022/09/30 07:22:45;;;;;;;1.90;1.80;;;11.70;99.90;;;;;;5021709;28;20326;-69
2022/09/30 07:25:13;;;;;;;1.93;1.53;;;11.80;99.90;;;;;;5026980;28;20204;-69
2022/09/30 07:27:39;;;;;;;1.93;1.80;;;11.80;99.90;;;;;;5021847;28;20283;-69
2022/09/30 07:30:07;;;;;;;1.87;1.77;;;11.80;99.90;;;;;;5020344;28;20213;-69
2022/09/30 07:32:35;;;;;;;1.93;1.70;;;11.90;99.90;;;;;;5027736;28;20214;-67
2022/09/30 07:35:02;;;;;;;1.80;1.70;;;11.80;99.90;;;;;;5021068;28;20211;-67
2022/09/30 07:37:34;;;;;;;2.20;1.80;;;11.80;99.90;;;;;;5036166;28;20232;-69
2022/09/30 07:40:03;;;;;;;2.00;1.90;;;11.80;99.90;;;;;;5024613;28;20681;-69
2022/09/30 07:42:30;;;;;;;2.50;2.40;;;11.80;99.90;;;;;;5024373;28;20232;-66
2022/09/30 07:44:57;;;;;;;3.00;2.80;;;11.80;99.90;;;;;;5018835;28;20206;-67
2022/09/30 07:47:24;;;;;;;3.03;2.83;;;11.90;99.90;;;;;;5023613;28;20206;-67
2022/09/30 07:49:52;;;;;;;2.40;2.20;;;12.00;99.90;;;;;;5024195;28;20211;-68
2022/09/30 07:52:19;;;;;;;3.17;2.97;;;12.00;99.90;;;;;;5020627;28;20228;-67
2022/09/30 07:54:46;;;;;;;3.80;3.60;;;11.90;99.90;;;;;;5028718;28;20208;-68
2022/09/30 07:57:13;;;;;;;3.43;3.20;;;12.00;99.90;;;;;;5017961;28;20206;-68
2022/09/30 07:59:41;;;;;;;3.77;3.57;;;12.10;99.90;;;;;;5030189;28;20293;-68
2022/09/30 08:02:14;;;;;;;2.77;2.57;;;12.10;99.90;;;;;;5017763;28;20275;-67
2022/09/30 08:04:41;;;;;;;2.50;2.40;;;12.10;99.90;;;;;;5028571;28;20217;-67
2022/09/30 08:07:09;;;;;;;2.33;2.23;;;12.20;99.90;;;;;;5025866;28;20210;-69
2022/09/30 08:09:36;;;;;;;2.80;2.60;;;12.20;99.90;;;;;;5028607;28;20197;-68
2022/09/30 08:12:04;;;;;;;3.57;3.37;;;12.30;99.90;;;;;;5024739;28;20257;-67
2022/09/30 08:14:31;;;;;;;2.87;2.67;;;12.30;99.90;;;;;;5027236;28;20570;-68
2022/09/30 08:16:59;;;;;;;2.33;2.20;;;12.30;99.90;;;;;;5024186;28;20220;-67
2022/09/30 08:19:27;;;;;;;2.20;2.10;;;12.30;99.90;;;;;;5023977;28;20207;-67
2022/09/30 08:21:53;;;;;;;2.00;1.90;;;12.40;99.90;;;;;;5018814;28;20246;-68
2022/09/30 08:24:22;;;;;;;2.20;2.10;;;12.40;99.90;;;;;;5025857;28;20212;-67
2022/09/30 08:26:49;;;;;;;2.67;2.57;;;12.20;99.90;;;;;;5026984;28;20205;-67
2022/09/30 08:29:16;;;;;;;2.40;2.30;;;12.20;99.90;;;;;;5022682;28;20297;-68
2022/09/30 08:31:43;;;;;;;2.87;2.67;;;12.40;99.90;;;;;;5031523;28;20315;-68
2022/09/30 08:34:11;;;;;;;2.93;2.73;;;12.60;99.90;;;;;;5026768;28;20211;-67
2022/09/30 08:36:38;;;;;;;3.80;3.60;;;12.40;99.90;;;;;;5025533;28;20197;-67
2022/09/30 08:39:05;;;;;;;3.73;3.43;;;12.50;99.90;;;;;;5032343;28;20236;-66
2022/09/30 08:41:58;;;;;;;2.93;2.73;;;12.60;99.90;;;;;;5027489;28;20725;-68
2022/09/30 08:44:40;;;;;;;2.50;2.40;;;12.60;99.90;;;;;;5020661;28;20205;-67
2022/09/30 08:47:19;;;;;;;2.60;2.50;;;12.60;99.90;;;;;;5013924;28;20209;-67
2022/09/30 08:49:54;;;;;;;2.20;2.10;;;12.50;99.90;;;;;;5024419;28;20208;-67
2022/09/30 08:52:24;;;;;;;2.30;2.20;;;12.40;99.90;;;;;;5025757;28;20225;-69
2022/09/30 08:54:54;;;;;;;2.63;2.43;;;12.50;99.90;;;;;;5027407;28;20224;-68
2022/09/30 08:57:23;;;;;;;2.50;2.40;;;12.40;99.90;;;;;;5019744;28;20213;-68
2022/09/30 08:59:53;;;;;;;3.00;2.80;;;12.50;99.90;;;;;;5026661;28;20248;-66
2022/09/30 09:02:24;;;;;;;2.83;2.63;;;12.60;99.90;;;;;;5020183;28;20230;-68
2022/09/30 09:04:52;;;;;;;2.30;2.20;;;12.70;99.90;;;;;;5026354;28;20197;-67
2022/09/30 09:07:33;;;;;;;1.80;1.70;;;12.90;99.90;;;;;;5020837;28;20206;-67
2022/09/30 09:10:12;;;;;;;2.10;2.00;;;13.10;99.90;;;;;;5026139;28;20207;-67
2022/09/30 09:12:48;;;;;;;2.20;2.10;;;13.10;99.90;;;;;;5018296;28;20220;-67
2022/09/30 09:15:22;;;;;;;2.33;2.23;;;13.00;99.90;;;;;;5019507;28;20570;-67
2022/09/30 09:18:10;;;;;;;1.90;1.80;;;13.00;99.90;;;;;;5024311;28;20561;-67
2022/09/30 09:20:42;;;;;;;1.80;1.70;;;13.00;99.90;;;;;;5011933;28;20246;-67
2022/09/30 09:23:13;;;;;;;2.30;2.20;;;13.00;99.90;;;;;;5024597;28;20316;-67
2022/09/30 09:25:40;;;;;;;2.07;1.97;;;13.10;99.90;;;;;;5014848;28;20202;-68
2022/09/30 09:28:22;;;;;;;2.17;2.07;;;13.00;99.90;;;;;;5026602;28;20200;-68
2022/09/30 09:30:54;;;;;;;1.90;1.80;;;13.00;99.90;;;;;;5017064;28;20232;-65
2022/09/30 09:33:26;;;;;;;1.90;1.80;;;13.00;99.90;;;;;;5028877;28;20202;-66
2022/09/30 09:35:59;;;;;;;2.10;2.00;;;12.90;99.90;;;;;;5026598;28;20266;-67
2022/09/30 09:38:35;;;;;;;2.40;2.30;;;13.00;99.90;;;;;;5022845;28;20207;-67
2022/09/30 09:41:13;;;;;;;2.00;1.90;;;13.00;99.90;;;;;;5020585;28;20200;-67
2022/09/30 09:43:51;;;;;;;2.00;1.90;;;12.80;99.90;;;;;;5016904;28;20226;-67
2022/09/30 09:46:24;;;;;;;1.80;1.70;;;13.00;99.90;;;;;;5019154;28;20619;-66
2022/09/30 09:49:11;;;;;;;1.90;1.80;;;13.20;99.90;;;;;;5027290;28;20204;-67
2022/09/30 09:51:41;;;;;;;2.00;1.90;;;13.00;99.90;;;;;;4997909;28;20245;-66
2022/09/30 09:54:11;;;;;;;2.00;1.90;;;12.80;99.90;;;;;;5016273;28;20284;-67
2022/09/30 09:56:38;;;;;;;2.00;1.90;;;12.80;99.90;;;;;;5027429;28;20264;-67
2022/09/30 09:59:13;;;;;;;2.10;2.00;;;12.80;99.90;;;;;;5032379;28;20287;-67
2022/09/30 10:01:43;;;;;;;2.07;1.97;;;12.90;99.90;;;;;;5023379;28;20247;-67
2022/09/30 10:04:16;;;;;;;2.10;2.00;;;13.30;99.90;;;;;;5013997;28;20361;-68
2022/09/30 10:06:50;;;;;;;1.90;1.80;;;13.50;99.90;;;;;;5023417;28;20198;-67
2022/09/30 10:09:29;;;;;;;2.10;1.70;;;13.60;99.90;;;;;;5018376;28;20628;-68
2022/09/30 10:12:28;;;;;;;1.93;1.83;;;13.90;99.90;;;;;;5022437;28;20947;-68
2022/09/30 10:15:20;;;;;;;2.00;1.90;;;14.00;99.90;;;;;;5018622;28;20204;-67
2022/09/30 10:17:55;;;;;;;2.10;2.00;;;14.00;99.90;;;;;;5006080;28;20204;-67
2022/09/30 10:20:31;;;;;;;2.00;1.90;;;14.00;99.90;;;;;;5015858;28;20204;-67
2022/09/30 10:23:08;;;;;;;2.13;2.03;;;14.00;99.90;;;;;;5023523;28;20234;-66
2022/09/30 10:25:36;;;;;;;2.10;2.00;;;14.00;99.90;;;;;;5028293;28;20279;-66
2022/09/30 10:28:18;;;;;;;2.13;2.00;;;14.00;99.90;;;;;;5043748;28;20616;-65
2022/09/30 10:30:51;;;;;;;2.20;2.10;;;14.00;99.90;;;;;;5035725;28;20231;-67
2022/09/30 10:33:25;;;;;;;1.90;1.80;;;14.00;99.90;;;;;;5017347;28;20303;-67
2022/09/30 10:36:00;;;;;;;1.70;1.60;;;14.10;99.90;;;;;;5024361;28;20235;-66
2022/09/30 10:38:30;;;;;;;1.83;1.73;;;14.20;99.90;;;;;;5019986;28;20290;-67
2022/09/30 10:40:58;;;;;;;2.20;2.10;;;14.40;99.90;;;;;;5024334;28;20205;-68
2022/09/30 10:43:29;;;;;;;2.10;2.00;;;14.50;99.90;;;;;;5021146;28;20220;-65
2022/09/30 10:46:02;;;;;;;1.80;1.70;;;14.70;99.90;;;;;;5019292;28;20204;-66
2022/09/30 10:48:34;;;;;;;2.03;1.93;;;14.60;99.90;;;;;;5015008;28;20611;-67
2022/09/30 10:51:01;;;;;;;1.83;1.73;;;14.50;99.90;;;;;;5019808;28;20205;-66
2022/09/30 10:53:29;;;;;;;1.97;1.87;;;14.30;99.90;;;;;;5014257;28;20543;-66
2022/09/30 10:55:57;;;;;;;1.90;1.80;;;14.20;99.90;;;;;;5020895;28;20208;-69
2022/09/30 10:58:35;;;;;;;2.10;2.00;;;14.20;99.90;;;;;;5018481;28;20241;-67
2022/09/30 11:01:10;;;;;;;1.87;1.77;;;14.00;99.90;;;;;;5024843;28;20598;-67
2022/09/30 11:03:52;;;;;;;1.70;1.60;;;14.10;99.90;;;;;;5010676;28;20224;-67
2022/09/30 11:06:20;;;;;;;1.90;1.80;;;14.30;99.90;;;;;;5021139;28;20201;-68
2022/09/30 11:08:55;;;;;;;1.83;1.73;;;14.30;99.90;;;;;;5017724;28;20236;-67
2022/09/30 11:11:28;;;;;;;1.80;1.70;;;14.40;99.90;;;;;;5028516;28;20220;-66
2022/09/30 11:13:59;;;;;;;1.90;1.80;;;14.60;99.90;;;;;;5021930;28;20200;-67
2022/09/30 11:16:36;;;;;;;1.77;1.67;;;14.70;99.90;;;;;;5031088;28;20201;-67
2022/09/30 11:19:09;;;;;;;1.70;1.60;;;14.80;99.90;;;;;;5016605;28;20212;-65
2022/09/30 11:21:44;;;;;;;1.60;1.50;;;14.80;99.90;;;;;;5017702;28;20235;-66
2022/09/30 11:24:22;;;;;;;1.60;1.57;;;14.80;99.90;;;;;;5018007;28;20549;-66
2022/09/30 11:26:56;;;;;;;1.67;1.63;;;15.00;99.90;;;;;;5024373;28;20203;-66
2022/09/30 11:29:44;;;;;;;1.40;1.40;;;15.20;99.90;;;;;;5020378;28;20219;-66
2022/09/30 11:32:24;;;;;;;1.63;1.57;;;15.40;99.90;;;;;;5027104;28;20224;-67
2022/09/30 11:35:01;;;;;;;1.70;1.60;;;15.30;99.90;;;;;;5016420;28;20189;-66
2022/09/30 11:37:42;;;;;;;1.80;1.70;;;15.30;99.90;;;;;;5020482;28;20203;-67
2022/09/30 11:40:31;;;;;;;1.50;1.40;;;15.50;99.90;;;;;;5018834;28;20205;-66
2022/09/30 11:43:12;;;;;;;1.80;1.70;;;15.60;99.90;;;;;;5029777;28;20320;-68
2022/09/30 11:45:52;;;;;;;1.63;1.53;;;15.50;99.90;;;;;;5015631;28;20207;-65
2022/09/30 11:48:35;;;;;;;2.00;1.90;;;15.50;99.90;;;;;;5019267;28;20206;-67
2022/09/30 11:51:10;;;;;;;1.90;1.80;;;15.50;99.90;;;;;;5027222;28;20336;-67
2022/09/30 11:53:48;;;;;;;1.37;1.37;;;15.30;99.90;;;;;;5024722;28;20237;-66
2022/09/30 11:56:34;;;;;;;1.70;1.70;;;15.20;99.90;;;;;;5026684;28;20581;-68
2022/09/30 11:59:05;;;;;;;1.63;1.53;;;15.00;99.90;;;;;;5027428;28;20219;-66
2022/09/30 12:01:36;;;;;;;1.80;1.70;;;15.00;99.90;;;;;;5021631;28;20612;-67
2022/09/30 12:04:08;;;;;;;1.47;1.47;;;15.30;99.90;;;;;;5015804;28;20599;-67
2022/09/30 12:06:37;;;;;;;1.60;1.50;;;15.30;99.90;;;;;;5015419;28;20197;-66
2022/09/30 12:09:14;;;;;;;1.40;1.40;;;15.40;99.90;;;;;;5013440;28;20212;-65
2022/09/30 12:11:48;;;;;;;1.60;1.50;;;15.50;99.90;;;;;;5032260;28;20315;-67
2022/09/30 12:14:23;;;;;;;1.40;1.30;;;15.50;99.90;;;;;;5019816;28;20652;-68
2022/09/30 12:16:50;;;;;;;1.60;1.50;;;15.40;99.90;;;;;;5027757;28;20261;-65
2022/09/30 12:19:22;;;;;;;1.40;1.40;;;15.50;99.90;;;;;;5019290;28;20660;-66
2022/09/30 12:21:56;;;;;;;1.70;1.60;;;15.70;99.90;;;;;;5021402;28;20435;-66
2022/09/30 12:24:29;;;;;;;1.40;1.40;;;15.70;99.90;;;;;;5024947;28;20244;-66
2022/09/30 12:26:56;;;;;;;1.33;1.33;;;15.80;99.90;;;;;;5020839;28;20207;-66
2022/09/30 12:32:50;;;;;;;1.60;1.50;;;16.00;99.90;;;;;;5018820;28;20237;-66
2022/09/30 12:35:45;;;;;;;1.47;1.30;;;16.00;99.90;;;;;;4922985;28;20208;-67
2022/09/30 12:38:29;;;;;;;1.60;1.50;;;16.00;99.90;;;;;;5018424;28;20198;-66
2022/09/30 12:41:08;;;;;;;1.47;1.43;;;15.90;99.90;;;;;;5025623;28;20656;-66
2022/09/30 12:44:11;;;;;;;1.37;1.30;;;16.00;99.90;;;;;;5013466;28;20686;-68
2022/09/30 12:46:54;;;;;;;1.33;1.33;;;16.10;99.90;;;;;;5015472;28;20209;-66
2022/09/30 12:49:24;;;;;;;1.30;1.30;;;16.20;99.90;;;;;;5013370;28;20293;-68
2022/09/30 12:51:56;;;;;;;1.20;1.20;;;16.50;99.90;;;;;;5023202;28;20312;-68
2022/09/30 12:54:28;;;;;;;1.40;1.30;;;16.70;99.90;;;;;;5028819;28;20263;-67
2022/09/30 12:56:59;;;;;;;1.00;1.00;;;17.00;99.90;;;;;;5017012;28;20215;-67
2022/09/30 12:59:29;;;;;;;1.10;1.10;;;17.00;99.90;;;;;;5017111;28;20262;-67
2022/09/30 13:01:58;;;;;;;1.13;1.13;;;17.10;99.90;;;;;;5023152;28;20235;-67
2022/09/30 13:04:35;;;;;;;1.10;1.10;;;17.10;99.90;;;;;;5025322;28;20227;-67
2022/09/30 13:07:21;;;;;;;1.13;1.03;;;17.20;99.90;;;;;;5009635;28;20208;-67
2022/09/30 13:10:25;;;;;;;0.70;0.70;;;17.40;99.90;;;;;;5016754;28;20200;-66
2022/09/30 13:13:16;;;;;;;0.97;0.97;;;17.70;99.90;;;;;;5017991;28;20311;-67
2022/09/30 13:15:44;;;;;;;1.03;1.03;;;17.80;99.90;;;;;;5022977;28;20468;-66